createdAt,value
2023-12-29T00:00:31.960Z,82.02
2023-12-29T00:02:59.127Z,81.73
2023-12-29T00:05:26.425Z,81.70
2023-12-29T00:07:53.486Z,81.91
2023-12-29T00:10:20.708Z,82.32
2023-12-29T00:12:47.834Z,82.51
2023-12-29T00:15:18.649Z,82.85
2023-12-29T00:17:48.410Z,82.84
2023-12-29T00:20:28.807Z,83.01
2023-12-29T00:23:00.915Z,83.99
2023-12-29T00:25:28.234Z,84.79
2023-12-29T00:27:55.368Z,85.48
2023-12-29T00:30:22.414Z,85.94
2023-12-29T00:32:52.079Z,86.06
2023-12-29T00:35:19.083Z,86.29
2023-12-29T00:37:46.232Z,86.31
2023-12-29T00:40:13.645Z,86.18
2023-12-29T00:42:40.714Z,86.10
2023-12-29T00:45:08.812Z,86.30
2023-12-29T00:47:36.105Z,85.89
2023-12-29T00:50:06.627Z,85.73
2023-12-29T00:52:33.599Z,85.41
2023-12-29T00:55:00.921Z,85.47
2023-12-29T00:57:28.039Z,85.41
2023-12-29T00:59:55.097Z,85.16
2023-12-29T01:02:22.200Z,85.02
2023-12-29T01:04:49.321Z,85.24
2023-12-29T01:07:19.018Z,85.53
2023-12-29T01:09:46.122Z,85.41
2023-12-29T01:12:13.180Z,84.97
2023-12-29T01:14:40.206Z,84.60
2023-12-29T01:17:07.215Z,84.56
2023-12-29T01:19:34.695Z,84.10
2023-12-29T01:22:01.802Z,84.54
2023-12-29T01:24:39.866Z,84.64
2023-12-29T01:27:10.108Z,84.70
2023-12-29T01:29:37.876Z,84.59
2023-12-29T01:32:06.263Z,84.40
2023-12-29T01:34:33.530Z,84.39
2023-12-29T01:37:00.921Z,84.26
2023-12-29T01:39:27.961Z,84.09
2023-12-29T01:41:59.143Z,84.02
2023-12-29T01:44:26.142Z,83.66
2023-12-29T01:46:56.142Z,83.21
2023-12-29T01:49:23.775Z,83.33
2023-12-29T01:51:54.394Z,83.13
2023-12-29T01:54:23.151Z,83.08
2023-12-29T01:56:53.147Z,82.95
2023-12-29T01:59:26.338Z,83.13
2023-12-29T02:01:55.847Z,82.90
2023-12-29T02:04:25.612Z,82.99
2023-12-29T02:06:53.134Z,83.08
2023-12-29T02:09:20.466Z,83.12
2023-12-29T02:11:48.433Z,83.39
2023-12-29T02:14:17.899Z,83.52
2023-12-29T02:17:00.003Z,83.34
2023-12-29T02:19:38.963Z,83.56
2023-12-29T02:22:06.920Z,83.42
2023-12-29T02:24:35.558Z,83.45
2023-12-29T02:27:19.472Z,83.39
2023-12-29T02:29:57.636Z,83.27
2023-12-29T02:32:27.726Z,83.45
2023-12-29T02:34:55.956Z,83.31
2023-12-29T02:37:25.820Z,83.43
2023-12-29T02:39:53.266Z,83.59
2023-12-29T02:42:23.484Z,83.85
2023-12-29T02:44:50.631Z,83.16
2023-12-29T02:47:17.786Z,83.21
2023-12-29T02:49:44.973Z,83.12
2023-12-29T02:52:12.283Z,82.83
2023-12-29T02:54:39.384Z,83.22
2023-12-29T02:57:06.403Z,83.56
2023-12-29T02:59:35.949Z,83.54
2023-12-29T03:02:03.052Z,83.59
2023-12-29T03:04:30.168Z,83.82
2023-12-29T03:06:57.341Z,83.94
2023-12-29T03:09:24.474Z,83.67
2023-12-29T03:11:51.473Z,83.86
2023-12-29T03:14:18.488Z,84.02
2023-12-29T03:16:48.009Z,83.94
2023-12-29T03:19:15.173Z,84.46
2023-12-29T03:21:42.301Z,84.54
2023-12-29T03:24:09.471Z,84.87
2023-12-29T03:26:36.624Z,85.06
2023-12-29T03:29:03.632Z,85.69
2023-12-29T03:31:30.733Z,85.87
2023-12-29T03:34:00.437Z,86.37
2023-12-29T03:36:27.549Z,86.77
2023-12-29T03:38:54.556Z,86.91
2023-12-29T03:41:21.557Z,87.37
2023-12-29T03:43:48.540Z,87.60
2023-12-29T03:46:18.911Z,86.66
2023-12-29T03:48:46.433Z,86.44
2023-12-29T03:51:17.242Z,86.11
2023-12-29T03:53:44.277Z,86.13
2023-12-29T03:56:16.829Z,86.21
2023-12-29T03:58:44.105Z,86.06
2023-12-29T04:01:11.745Z,86.24
2023-12-29T04:03:39.081Z,86.44
2023-12-29T04:06:06.884Z,86.23
2023-12-29T04:08:38.067Z,86.43
2023-12-29T04:11:06.265Z,86.33
2023-12-29T04:13:33.580Z,86.38
2023-12-29T04:16:01.039Z,86.04
2023-12-29T04:18:30.548Z,86.63
2023-12-29T04:20:57.757Z,86.42
2023-12-29T04:23:24.775Z,86.23
2023-12-29T04:25:54.391Z,86.16
2023-12-29T04:28:21.445Z,85.96
2023-12-29T04:30:48.575Z,85.94
2023-12-29T04:33:15.757Z,85.89
2023-12-29T04:35:42.727Z,86.12
2023-12-29T04:38:09.793Z,86.29
2023-12-29T04:40:37.710Z,85.80
2023-12-29T04:43:07.497Z,85.81
2023-12-29T04:45:34.623Z,85.61
2023-12-29T04:48:01.861Z,85.97
2023-12-29T04:50:29.071Z,85.96
2023-12-29T04:52:56.137Z,86.29
2023-12-29T04:55:23.182Z,86.53
2023-12-29T04:57:50.262Z,86.73
2023-12-29T05:00:20.276Z,86.84
2023-12-29T05:02:47.285Z,87.10
2023-12-29T05:05:14.485Z,87.77
2023-12-29T05:07:42.295Z,88.53
2023-12-29T05:10:10.069Z,89.29
2023-12-29T05:12:37.158Z,89.85
2023-12-29T05:15:05.537Z,90.98
2023-12-29T05:17:35.170Z,91.72
2023-12-29T05:20:02.707Z,91.93
2023-12-29T05:22:29.719Z,92.63
2023-12-29T05:24:56.718Z,92.63
2023-12-29T05:27:23.738Z,92.82
2023-12-29T05:29:50.845Z,92.58
2023-12-29T05:32:17.926Z,92.62
2023-12-29T05:34:47.558Z,92.89
2023-12-29T05:37:14.784Z,92.85
2023-12-29T05:39:43.045Z,92.96
2023-12-29T05:42:10.160Z,93.37
2023-12-29T05:44:37.481Z,93.35
2023-12-29T05:47:05.140Z,93.12
2023-12-29T05:49:32.300Z,93.60
2023-12-29T05:52:02.054Z,93.13
2023-12-29T05:54:29.079Z,93.08
2023-12-29T05:56:56.193Z,92.96
2023-12-29T05:59:23.260Z,93.06
2023-12-29T06:01:50.411Z,92.81
2023-12-29T06:04:17.603Z,92.46
2023-12-29T06:06:44.756Z,92.58
2023-12-29T06:09:14.432Z,92.81
2023-12-29T06:11:41.635Z,92.54
2023-12-29T06:14:08.680Z,92.41
2023-12-29T06:16:35.731Z,92.46
2023-12-29T06:19:04.878Z,92.41
2023-12-29T06:21:31.960Z,92.51
2023-12-29T06:23:58.993Z,92.34
2023-12-29T06:26:28.760Z,92.64
2023-12-29T06:28:55.773Z,92.33
2023-12-29T06:31:23.020Z,92.33
2023-12-29T06:33:50.230Z,92.66
2023-12-29T06:36:17.482Z,92.58
2023-12-29T06:38:44.533Z,92.82
2023-12-29T06:41:11.646Z,92.75
2023-12-29T06:43:41.339Z,92.89
2023-12-29T06:46:08.389Z,92.92
2023-12-29T06:48:35.748Z,93.05
2023-12-29T06:51:02.981Z,93.35
2023-12-29T06:53:30.002Z,92.99
2023-12-29T06:55:57.070Z,92.91
2023-12-29T06:58:24.175Z,93.20
2023-12-29T07:00:53.931Z,93.37
2023-12-29T07:03:21.054Z,93.42
2023-12-29T07:05:48.154Z,93.66
2023-12-29T07:08:15.204Z,93.56
2023-12-29T07:10:42.422Z,92.99
2023-12-29T07:13:09.882Z,92.85
2023-12-29T07:15:37.113Z,92.78
2023-12-29T07:18:07.457Z,92.66
2023-12-29T07:20:35.069Z,92.58
2023-12-29T07:23:02.219Z,92.39
2023-12-29T07:25:29.424Z,92.64
2023-12-29T07:27:56.536Z,92.33
2023-12-29T07:30:23.663Z,92.31
2023-12-29T07:32:50.828Z,92.11
2023-12-29T07:35:20.662Z,91.74
2023-12-29T07:37:48.187Z,91.42
2023-12-29T07:40:15.831Z,91.92
2023-12-29T07:42:43.477Z,92.26
2023-12-29T07:45:10.663Z,92.35
2023-12-29T07:47:38.030Z,92.50
2023-12-29T07:50:05.866Z,92.99
2023-12-29T07:52:35.579Z,92.77
2023-12-29T07:55:02.624Z,92.79
2023-12-29T07:57:29.718Z,92.55
2023-12-29T07:59:56.786Z,92.50
2023-12-29T08:02:26.040Z,92.34
2023-12-29T08:04:53.134Z,91.75
2023-12-29T08:07:20.257Z,91.52
2023-12-29T08:09:49.942Z,91.43
2023-12-29T08:12:16.956Z,90.95
2023-12-29T08:14:43.983Z,90.44
2023-12-29T08:17:11.537Z,90.20
2023-12-29T08:19:38.660Z,90.33
2023-12-29T08:22:06.415Z,90.22
2023-12-29T08:24:33.403Z,89.96
2023-12-29T08:27:04.088Z,90.18
2023-12-29T08:29:31.231Z,89.76
2023-12-29T08:31:58.244Z,89.62
2023-12-29T08:34:28.280Z,89.65
2023-12-29T08:36:55.671Z,89.33
2023-12-29T08:39:22.670Z,89.30
2023-12-29T08:41:49.808Z,88.85
2023-12-29T08:44:19.421Z,88.88
2023-12-29T08:46:46.405Z,88.62
2023-12-29T08:49:13.508Z,88.94
2023-12-29T08:51:40.546Z,88.63
2023-12-29T08:54:07.615Z,88.10
2023-12-29T08:56:34.685Z,87.84
2023-12-29T08:59:01.718Z,87.94
2023-12-29T09:01:31.391Z,87.57
2023-12-29T09:03:58.530Z,87.14
2023-12-29T09:06:25.611Z,86.66
2023-12-29T09:08:52.733Z,86.54
2023-12-29T09:11:19.750Z,86.31
2023-12-29T09:13:46.784Z,86.17
2023-12-29T09:16:14.406Z,86.01
2023-12-29T09:18:44.173Z,85.47
2023-12-29T09:21:11.274Z,84.84
2023-12-29T09:23:38.446Z,85.40
2023-12-29T09:26:05.927Z,85.34
2023-12-29T09:28:34.724Z,85.12
2023-12-29T09:31:01.836Z,85.33
2023-12-29T09:33:29.219Z,85.19
2023-12-29T09:35:58.846Z,84.97
2023-12-29T09:38:25.892Z,84.97
2023-12-29T09:40:54.338Z,84.73
2023-12-29T09:43:21.644Z,84.35
2023-12-29T09:45:53.234Z,84.35
2023-12-29T09:48:22.967Z,84.05
2023-12-29T09:50:52.322Z,83.08
2023-12-29T09:53:22.734Z,82.07
2023-12-29T09:55:50.184Z,82.05
2023-12-29T09:58:20.319Z,82.45
2023-12-29T10:00:50.431Z,81.99
2023-12-29T10:03:17.590Z,81.91
2023-12-29T10:05:51.811Z,81.65
2023-12-29T10:08:24.689Z,81.13
2023-12-29T10:10:54.404Z,80.35
2023-12-29T10:13:24.090Z,80.98
2023-12-29T10:16:05.291Z,80.50
2023-12-29T10:18:38.956Z,80.34
2023-12-29T10:21:22.405Z,79.15
2023-12-29T10:24:02.455Z,78.54
2023-12-29T10:26:29.680Z,77.97
2023-12-29T10:28:58.498Z,78.13
2023-12-29T10:31:25.925Z,77.84
2023-12-29T10:33:53.196Z,77.21
2023-12-29T10:36:20.287Z,77.12
2023-12-29T10:38:47.271Z,77.31
2023-12-29T10:41:18.227Z,77.07
2023-12-29T10:43:46.591Z,76.46
2023-12-29T10:46:13.592Z,76.14
2023-12-29T10:48:41.264Z,75.67
2023-12-29T10:51:08.430Z,74.66
2023-12-29T10:53:40.551Z,74.52
2023-12-29T10:56:20.866Z,73.49
2023-12-29T10:58:58.471Z,73.06
2023-12-29T11:01:25.744Z,72.64
2023-12-29T11:03:59.373Z,72.49
2023-12-29T11:06:27.726Z,72.03
2023-12-29T11:08:54.756Z,71.89
2023-12-29T11:11:24.782Z,71.79
2023-12-29T11:13:52.094Z,72.14
2023-12-29T11:16:22.933Z,71.89
2023-12-29T11:18:51.608Z,71.13
2023-12-29T11:21:22.832Z,70.41
2023-12-29T11:23:49.970Z,70.09
2023-12-29T11:26:17.352Z,68.80
2023-12-29T11:28:48.319Z,68.56
2023-12-29T11:31:17.320Z,68.44
2023-12-29T11:33:51.724Z,68.53
2023-12-29T11:36:31.381Z,67.74
2023-12-29T11:39:12.136Z,66.91
2023-12-29T11:41:45.673Z,65.94
2023-12-29T11:44:26.380Z,65.93
2023-12-29T11:46:53.432Z,66.53
2023-12-29T11:49:20.888Z,66.30
2023-12-29T11:51:48.838Z,67.07
2023-12-29T11:54:23.952Z,67.75
2023-12-29T11:56:51.817Z,68.43
2023-12-29T11:59:23.813Z,68.99
2023-12-29T12:01:52.424Z,68.56
2023-12-29T12:04:38.080Z,68.09
2023-12-29T12:07:05.766Z,68.17
2023-12-29T12:09:32.802Z,68.14
2023-12-29T12:11:59.909Z,68.35
2023-12-29T12:14:48.624Z,68.38
2023-12-29T12:17:32.651Z,68.77
2023-12-29T12:20:03.132Z,69.18
2023-12-29T12:22:35.511Z,69.03
2023-12-29T12:25:05.244Z,69.52
2023-12-29T12:27:32.934Z,69.40
2023-12-29T12:30:03.904Z,69.66
2023-12-29T12:32:31.603Z,69.75
2023-12-29T12:34:58.802Z,69.79
2023-12-29T12:37:28.230Z,70.09
2023-12-29T12:39:56.104Z,70.01
2023-12-29T12:42:24.509Z,69.63
2023-12-29T12:45:12.089Z,69.46
2023-12-29T12:47:45.876Z,69.26
2023-12-29T12:50:14.450Z,70.10
2023-12-29T12:52:41.914Z,70.01
2023-12-29T12:55:10.732Z,70.08
2023-12-29T12:57:38.928Z,69.11
2023-12-29T13:00:10.359Z,68.79
2023-12-29T13:02:38.798Z,67.91
2023-12-29T13:05:07.358Z,66.91
2023-12-29T13:07:35.381Z,65.77
2023-12-29T13:10:04.193Z,65.46
2023-12-29T13:12:31.286Z,64.72
2023-12-29T13:15:09.811Z,64.58
2023-12-29T13:17:36.852Z,64.55
2023-12-29T13:20:04.501Z,64.33
2023-12-29T13:22:31.705Z,64.46
2023-12-29T13:24:59.080Z,64.71
2023-12-29T13:27:26.184Z,65.66
2023-12-29T13:29:54.018Z,65.32
2023-12-29T13:32:27.029Z,65.87
2023-12-29T13:35:08.051Z,66.41
2023-12-29T13:37:43.569Z,65.99
2023-12-29T13:40:18.999Z,65.95
2023-12-29T13:42:52.187Z,65.54
2023-12-29T13:45:21.045Z,64.94
2023-12-29T13:47:52.001Z,64.45
2023-12-29T13:50:19.400Z,63.65
2023-12-29T13:52:46.904Z,63.43
2023-12-29T13:55:21.584Z,63.65
2023-12-29T13:57:48.695Z,63.21
2023-12-29T14:00:16.834Z,62.92
2023-12-29T14:02:47.867Z,62.92
2023-12-29T14:05:28.759Z,62.70
2023-12-29T14:08:05.164Z,61.70
2023-12-29T14:10:33.262Z,61.20
2023-12-29T14:13:08.831Z,61.41
2023-12-29T14:15:37.023Z,61.47
2023-12-29T14:18:17.769Z,60.76
2023-12-29T14:20:47.598Z,60.51
2023-12-29T14:23:14.995Z,60.15
2023-12-29T14:25:42.110Z,60.26
2023-12-29T14:28:17.145Z,60.29
2023-12-29T14:30:45.061Z,60.16
2023-12-29T14:33:12.502Z,60.42
2023-12-29T14:35:39.810Z,60.37
2023-12-29T14:38:09.570Z,60.26
2023-12-29T14:40:36.676Z,60.14
2023-12-29T14:43:04.086Z,60.22
2023-12-29T14:45:31.452Z,60.68
2023-12-29T14:48:00.836Z,60.43
2023-12-29T14:50:28.381Z,60.41
2023-12-29T14:52:55.472Z,60.48
2023-12-29T14:55:25.099Z,60.08
2023-12-29T14:57:52.262Z,60.30
2023-12-29T15:00:19.754Z,59.89
2023-12-29T15:02:46.800Z,59.96
2023-12-29T15:05:13.905Z,60.44
2023-12-29T15:07:41.042Z,60.57
2023-12-29T15:10:09.210Z,61.05
2023-12-29T15:12:38.942Z,60.74
2023-12-29T15:15:06.866Z,60.83
2023-12-29T15:17:33.943Z,60.66
2023-12-29T15:20:00.964Z,60.82
2023-12-29T15:22:27.910Z,61.03
2023-12-29T15:24:54.998Z,61.19
2023-12-29T15:27:22.023Z,60.89
2023-12-29T15:29:51.612Z,61.02
2023-12-29T15:32:18.628Z,61.13
2023-12-29T15:34:45.716Z,61.46
2023-12-29T15:37:13.209Z,61.11
2023-12-29T15:39:42.910Z,61.35
2023-12-29T15:42:09.975Z,61.14
2023-12-29T15:44:37.040Z,60.84
2023-12-29T15:47:06.737Z,60.29
2023-12-29T15:49:33.870Z,60.84
2023-12-29T15:52:01.302Z,60.91
2023-12-29T15:54:28.333Z,60.87
2023-12-29T15:56:55.374Z,60.61
2023-12-29T15:59:22.368Z,60.53
2023-12-29T16:01:49.418Z,60.86
2023-12-29T16:04:19.212Z,60.87
2023-12-29T16:06:46.304Z,60.97
2023-12-29T16:09:13.270Z,61.01
2023-12-29T16:11:40.290Z,61.00
2023-12-29T16:14:07.484Z,61.30
2023-12-29T16:16:34.701Z,61.24
2023-12-29T16:19:02.091Z,61.00
2023-12-29T16:24:03.910Z,61.30
2023-12-29T16:26:38.371Z,61.24
2023-12-29T16:29:09.841Z,61.13
2023-12-29T16:31:36.988Z,61.00
2023-12-29T16:34:04.566Z,60.89
2023-12-29T16:36:34.270Z,60.52
2023-12-29T16:39:01.256Z,60.30
2023-12-29T16:41:28.261Z,60.43
2023-12-29T16:43:55.275Z,59.82
2023-12-29T16:46:22.410Z,59.86
2023-12-29T16:48:49.552Z,60.06
2023-12-29T16:51:16.698Z,59.71
2023-12-29T16:53:46.297Z,59.47
2023-12-29T16:56:13.355Z,59.36
2023-12-29T16:58:40.435Z,59.36
2023-12-29T17:01:07.440Z,59.36
2023-12-29T17:03:34.529Z,59.72
2023-12-29T17:06:01.557Z,59.36
2023-12-29T17:08:28.604Z,59.71
2023-12-29T17:10:58.208Z,59.51
2023-12-29T17:13:25.274Z,59.83
2023-12-29T17:15:52.408Z,59.58
2023-12-29T17:18:19.483Z,59.64
2023-12-29T17:20:46.485Z,59.26
2023-12-29T17:23:13.526Z,59.07
2023-12-29T17:25:46.643Z,59.39
2023-12-29T17:28:20.381Z,59.31
2023-12-29T17:30:47.496Z,59.11
2023-12-29T17:33:14.556Z,59.26
2023-12-29T17:35:41.635Z,58.98
2023-12-29T17:38:08.637Z,59.29
2023-12-29T17:40:35.636Z,59.36
2023-12-29T17:43:02.910Z,59.22
2023-12-29T17:45:32.727Z,59.41
2023-12-29T17:47:59.807Z,59.75
2023-12-29T17:50:26.887Z,59.70
2023-12-29T17:52:53.940Z,59.82
2023-12-29T17:55:21.077Z,60.14
2023-12-29T17:57:48.201Z,60.27
2023-12-29T18:00:16.386Z,60.25
2023-12-29T18:02:46.018Z,60.60
2023-12-29T18:05:13.081Z,60.52
2023-12-29T18:07:40.205Z,60.90
2023-12-29T18:10:07.879Z,60.96
2023-12-29T18:12:34.935Z,61.12
2023-12-29T18:15:01.985Z,61.27
2023-12-29T18:17:29.089Z,61.57
2023-12-29T18:19:58.762Z,61.57
2023-12-29T18:22:25.940Z,61.55
2023-12-29T18:24:53.072Z,61.64
2023-12-29T18:27:20.128Z,62.04
2023-12-29T18:29:47.177Z,62.12
2023-12-29T18:32:20.023Z,62.39
2023-12-29T18:34:49.654Z,61.83
2023-12-29T18:37:19.602Z,62.04
2023-12-29T18:39:46.976Z,62.15
2023-12-29T18:42:14.034Z,62.04
2023-12-29T18:44:41.171Z,62.12
2023-12-29T18:47:08.231Z,62.17
2023-12-29T18:49:35.761Z,62.21
2023-12-29T18:52:02.971Z,61.92
2023-12-29T18:54:32.663Z,62.11
2023-12-29T18:57:00.000Z,61.85
2023-12-29T18:59:27.656Z,61.87
2023-12-29T19:01:56.286Z,61.84
2023-12-29T19:04:23.482Z,61.84
2023-12-29T19:06:50.552Z,61.88
2023-12-29T19:09:17.581Z,61.97
2023-12-29T19:11:47.386Z,62.27
2023-12-29T19:14:14.395Z,62.54
2023-12-29T19:16:41.508Z,62.72
2023-12-29T19:19:08.768Z,62.83
2023-12-29T19:21:40.325Z,62.85
2023-12-29T19:24:07.822Z,62.79
2023-12-29T19:26:34.858Z,62.62
2023-12-29T19:29:04.558Z,62.34
2023-12-29T19:31:31.634Z,62.24
2023-12-29T19:33:58.709Z,61.75
2023-12-29T19:36:25.742Z,61.45
2023-12-29T19:38:52.764Z,61.56
2023-12-29T19:41:21.124Z,61.69
2023-12-29T19:43:48.882Z,61.60
2023-12-29T19:46:20.464Z,61.22
2023-12-29T19:48:49.287Z,61.22
2023-12-29T19:51:19.148Z,61.42
2023-12-29T19:53:46.184Z,61.22
2023-12-29T19:56:13.301Z,61.48
2023-12-29T19:58:40.330Z,61.32
2023-12-29T20:01:07.757Z,61.29
2023-12-29T20:03:37.663Z,61.23
2023-12-29T20:06:05.116Z,61.40
2023-12-29T20:08:32.198Z,61.44
2023-12-29T20:11:01.197Z,61.45
2023-12-29T20:13:28.386Z,61.46
2023-12-29T20:15:55.488Z,61.85
2023-12-29T20:18:22.599Z,61.78
2023-12-29T20:20:52.279Z,61.47
2023-12-29T20:23:19.285Z,61.50
2023-12-29T20:25:46.242Z,61.22
2023-12-29T20:28:13.763Z,61.03
2023-12-29T20:30:40.851Z,61.18
2023-12-29T20:33:07.911Z,61.32
2023-12-29T20:35:34.931Z,61.40
2023-12-29T20:38:04.654Z,61.61
2023-12-29T20:40:31.759Z,61.46
2023-12-29T20:42:58.878Z,61.72
2023-12-29T20:45:25.903Z,61.94
2023-12-29T20:47:52.997Z,62.16
2023-12-29T20:50:20.087Z,62.36
2023-12-29T20:52:47.141Z,62.32
2023-12-29T20:55:16.770Z,62.51
2023-12-29T20:57:43.831Z,62.42
2023-12-29T21:00:11.758Z,62.91
2023-12-29T21:02:38.739Z,62.94
2023-12-29T21:05:06.712Z,63.17
2023-12-29T21:07:33.810Z,63.27
2023-12-29T21:10:00.910Z,63.29
2023-12-29T21:12:30.511Z,63.31
2023-12-29T21:14:57.496Z,63.43
2023-12-29T21:17:24.564Z,63.59
2023-12-29T21:19:53.764Z,63.13
2023-12-29T21:22:21.032Z,63.38
2023-12-29T21:24:48.133Z,63.64
2023-12-29T21:27:15.206Z,63.47
2023-12-29T21:29:44.772Z,63.40
2023-12-29T21:32:12.010Z,63.33
2023-12-29T21:34:39.453Z,63.31
2023-12-29T21:37:06.608Z,63.29
2023-12-29T21:39:33.636Z,63.21
2023-12-29T21:42:00.810Z,63.18
2023-12-29T21:44:27.877Z,63.13
2023-12-29T21:46:57.522Z,63.34
2023-12-29T21:49:24.578Z,63.39
2023-12-29T21:51:51.915Z,63.44
2023-12-29T21:54:18.999Z,63.69
2023-12-29T21:56:46.110Z,63.81
2023-12-29T21:59:13.239Z,63.84
2023-12-29T22:01:40.648Z,64.87
2023-12-29T22:04:10.945Z,65.33
2023-12-29T22:06:40.364Z,65.61
2023-12-29T22:09:08.041Z,66.05
2023-12-29T22:11:35.686Z,66.19
2023-12-29T22:14:04.020Z,66.20
2023-12-29T22:16:31.152Z,65.83
2023-12-29T22:18:58.798Z,65.61
2023-12-29T22:21:28.483Z,65.93
2023-12-29T22:23:55.456Z,65.86
2023-12-29T22:26:22.480Z,66.18
2023-12-29T22:28:50.904Z,66.45
2023-12-29T22:31:19.158Z,67.46
2023-12-29T22:33:46.707Z,67.95
2023-12-29T22:36:15.864Z,68.34
2023-12-29T22:38:45.997Z,67.79
2023-12-29T22:41:15.617Z,67.62
2023-12-29T22:43:42.627Z,67.85
2023-12-29T22:46:09.995Z,68.07
2023-12-29T22:48:37.063Z,68.04
2023-12-29T22:51:04.599Z,68.15
2023-12-29T22:53:31.911Z,68.05
2023-12-29T22:56:02.056Z,68.50
2023-12-29T22:58:29.670Z,68.86
2023-12-29T23:00:56.849Z,69.11
2023-12-29T23:03:23.926Z,69.50
2023-12-29T23:05:51.173Z,69.96
2023-12-29T23:08:18.622Z,69.99
2023-12-29T23:10:45.815Z,70.14
2023-12-29T23:13:15.574Z,70.43
2023-12-29T23:15:43.116Z,70.84
2023-12-29T23:18:10.199Z,70.72
2023-12-29T23:20:37.439Z,70.50
2023-12-29T23:23:04.837Z,70.56
2023-12-29T23:25:32.097Z,70.24
2023-12-29T23:27:59.199Z,70.26
2023-12-29T23:30:28.814Z,70.27
2023-12-29T23:32:55.901Z,70.21
2023-12-29T23:35:24.765Z,70.20
2023-12-29T23:37:52.850Z,69.99
2023-12-29T23:40:20.211Z,69.91
2023-12-29T23:42:47.383Z,69.71
2023-12-29T23:45:14.467Z,69.78
2023-12-29T23:47:44.152Z,69.45
2023-12-29T23:50:11.436Z,68.69
2023-12-29T23:52:38.421Z,68.67
2023-12-29T23:55:06.856Z,68.69
2023-12-29T23:57:33.899Z,68.62
